createdAt,value
2018-12-23T00:02:16.291Z,33.73
2018-12-23T00:04:43.795Z,30.08
2018-12-23T00:07:11.289Z,31.75
2018-12-23T00:09:38.899Z,28.30
2018-12-23T00:12:06.387Z,31.65
2018-12-23T00:14:33.850Z,31.10
2018-12-23T00:17:01.464Z,24.37
2018-12-23T00:19:29.056Z,21.87
2018-12-23T00:21:56.586Z,19.50
2018-12-23T00:24:24.059Z,21.87
2018-12-23T00:26:53.416Z,14.38
2018-12-23T00:29:21.117Z,15.53
2018-12-23T00:31:48.563Z,19.33
2018-12-23T00:34:16.025Z,18.25
2018-12-23T00:36:43.636Z,17.75
2018-12-23T00:39:11.172Z,12.73
2018-12-23T00:41:38.631Z,11.67
2018-12-23T00:44:06.189Z,15.57
2018-12-23T00:46:33.729Z,17.33
2018-12-23T00:49:01.197Z,15.17
2018-12-23T00:51:28.663Z,14.30
2018-12-23T00:53:56.246Z,14.70
2018-12-23T00:56:23.836Z,14.93
2018-12-23T00:58:51.348Z,13.70
2018-12-23T01:01:18.812Z,18.13
2018-12-23T01:03:46.322Z,17.47
2018-12-23T01:06:13.973Z,18.60
2018-12-23T01:08:41.533Z,12.23
2018-12-23T01:11:09.047Z,14.97
2018-12-23T01:13:36.510Z,12.47
2018-12-23T01:16:03.986Z,11.47
2018-12-23T01:18:31.574Z,11.23
2018-12-23T01:20:59.048Z,11.37
2018-12-23T01:23:26.527Z,12.73
2018-12-23T01:25:54.002Z,12.07
2018-12-23T01:28:21.540Z,11.07
2018-12-23T01:30:49.120Z,13.30
2018-12-23T01:33:16.619Z,11.47
2018-12-23T01:35:44.157Z,14.53
2018-12-23T01:38:11.627Z,10.07
2018-12-23T01:40:39.191Z,13.73
2018-12-23T01:43:06.662Z,10.07
2018-12-23T01:45:34.158Z,10.20
2018-12-23T01:48:01.683Z,12.53
2018-12-23T01:50:29.283Z,10.70
2018-12-23T01:52:56.817Z,9.50
2018-12-23T01:55:24.410Z,11.10
2018-12-23T01:57:51.886Z,11.40
2018-12-23T02:00:19.352Z,13.28
2018-12-23T02:02:46.835Z,11.75
2018-12-23T02:05:14.319Z,13.47
2018-12-23T02:07:41.812Z,13.40
2018-12-23T02:10:09.341Z,12.67
2018-12-23T02:12:36.911Z,15.93
2018-12-23T02:15:04.500Z,12.90
2018-12-23T02:17:31.972Z,14.97
2018-12-23T02:19:59.491Z,12.43
2018-12-23T02:22:26.994Z,13.23
2018-12-23T02:24:54.515Z,12.43
2018-12-23T02:27:21.998Z,14.38
2018-12-23T02:29:49.448Z,12.97
2018-12-23T02:32:16.935Z,13.83
2018-12-23T02:34:44.407Z,14.75
2018-12-23T02:37:11.935Z,15.90
2018-12-23T02:39:39.385Z,15.90
2018-12-23T02:42:06.851Z,17.07
2018-12-23T02:44:34.372Z,15.50
2018-12-23T02:47:01.937Z,15.00
2018-12-23T02:49:29.387Z,18.30
2018-12-23T02:51:56.860Z,14.97
2018-12-23T02:54:24.323Z,19.07
2018-12-23T02:56:51.791Z,17.63
2018-12-23T02:59:19.317Z,17.57
2018-12-23T03:01:46.878Z,20.30
2018-12-23T03:04:14.359Z,20.33
2018-12-23T03:06:41.835Z,18.93
2018-12-23T03:09:09.363Z,19.03
2018-12-23T03:11:36.829Z,18.03
2018-12-23T03:14:04.331Z,20.00
2018-12-23T03:16:32.048Z,19.90
2018-12-23T03:18:59.516Z,18.00
2018-12-23T03:21:27.050Z,17.73
2018-12-23T03:23:54.570Z,17.33
2018-12-23T03:26:22.111Z,22.73
2018-12-23T03:28:49.612Z,19.57
2018-12-23T03:31:17.144Z,18.90
2018-12-23T03:33:44.802Z,20.73
2018-12-23T03:36:15.241Z,19.67
2018-12-23T03:38:41.939Z,19.80
2018-12-23T03:41:09.397Z,20.90
2018-12-23T03:43:36.880Z,19.03
2018-12-23T03:46:04.360Z,20.20
2018-12-23T03:48:31.818Z,20.83
2018-12-23T03:50:59.275Z,18.17
2018-12-23T03:53:26.721Z,20.43
2018-12-23T03:55:54.199Z,18.90
2018-12-23T03:58:21.665Z,19.07
2018-12-23T04:00:49.127Z,17.70
2018-12-23T04:03:16.592Z,15.70
2018-12-23T04:05:44.093Z,19.43
2018-12-23T04:08:11.578Z,17.03
2018-12-23T04:10:39.072Z,17.30
2018-12-23T04:13:06.533Z,17.00
2018-12-23T04:15:34.003Z,17.30
2018-12-23T04:18:01.568Z,18.83
2018-12-23T04:20:29.081Z,16.33
2018-12-23T04:22:56.539Z,13.83
2018-12-23T04:25:24.009Z,15.73
2018-12-23T04:27:51.547Z,15.70
2018-12-23T04:30:19.103Z,17.80
2018-12-23T04:32:46.569Z,16.83
2018-12-23T04:35:14.018Z,14.93
2018-12-23T04:37:41.475Z,16.90
2018-12-23T04:40:09.026Z,14.77
2018-12-23T04:42:36.501Z,13.33
2018-12-23T04:45:04.200Z,14.57
2018-12-23T04:47:31.765Z,15.30
2018-12-23T04:49:59.244Z,13.23
2018-12-23T04:52:26.805Z,14.17
2018-12-23T04:54:54.253Z,14.13
2018-12-23T04:57:21.827Z,16.10
2018-12-23T04:59:49.323Z,15.53
2018-12-23T05:02:16.862Z,13.93
2018-12-23T05:04:44.371Z,14.60
2018-12-23T05:07:11.860Z,12.90
2018-12-23T05:09:39.376Z,16.60
2018-12-23T05:12:06.838Z,17.17
2018-12-23T05:14:34.354Z,14.47
2018-12-23T05:17:01.850Z,15.27
2018-12-23T05:19:29.307Z,15.50
2018-12-23T05:21:56.762Z,15.27
2018-12-23T05:24:24.325Z,15.13
2018-12-23T05:26:51.784Z,16.63
2018-12-23T05:29:19.228Z,20.07
2018-12-23T05:31:46.708Z,14.67
2018-12-23T05:34:14.170Z,16.63
2018-12-23T05:36:41.643Z,14.53
2018-12-23T05:39:09.094Z,13.53
2018-12-23T05:41:36.658Z,15.50
2018-12-23T05:44:04.122Z,14.53
2018-12-23T05:46:31.614Z,14.90
2018-12-23T05:48:59.192Z,18.50
2018-12-23T05:51:26.756Z,16.50
2018-12-23T05:53:54.230Z,13.93
2018-12-23T05:56:21.702Z,14.73
2018-12-23T05:58:49.152Z,15.03
2018-12-23T06:01:16.648Z,15.63
2018-12-23T06:03:44.118Z,13.80
2018-12-23T06:06:11.598Z,14.40
2018-12-23T06:08:39.170Z,17.20
2018-12-23T06:11:06.718Z,16.13
2018-12-23T06:13:34.162Z,17.93
2018-12-23T06:16:01.750Z,16.40
2018-12-23T06:18:29.216Z,16.70
2018-12-23T06:20:56.676Z,14.83
2018-12-23T06:23:24.137Z,14.37
2018-12-23T06:25:51.598Z,14.47
2018-12-23T06:28:19.095Z,14.70
2018-12-23T06:30:46.553Z,19.03
2018-12-23T06:33:14.035Z,19.47
2018-12-23T06:35:41.570Z,15.37
2018-12-23T06:38:09.128Z,16.67
2018-12-23T06:40:36.578Z,14.67
2018-12-23T06:43:04.059Z,16.77
2018-12-23T06:45:31.627Z,18.50
2018-12-23T06:47:59.091Z,15.73
2018-12-23T06:50:26.547Z,16.93
2018-12-23T06:52:54.074Z,16.70
2018-12-23T06:55:21.566Z,17.00
2018-12-23T06:57:49.024Z,18.13
2018-12-23T07:00:16.586Z,15.57
2018-12-23T07:02:44.206Z,18.30
2018-12-23T07:05:11.678Z,16.10
2018-12-23T07:07:39.156Z,18.33
2018-12-23T07:10:08.261Z,17.67
2018-12-23T07:12:35.726Z,19.20
2018-12-23T07:15:03.272Z,17.87
2018-12-23T07:17:30.896Z,16.27
2018-12-23T07:19:58.668Z,19.70
2018-12-23T07:22:26.156Z,17.60
2018-12-23T07:24:53.729Z,18.33
2018-12-23T07:27:21.192Z,15.57
2018-12-23T07:29:48.686Z,16.83
2018-12-23T07:32:16.161Z,17.07
2018-12-23T07:34:43.688Z,16.40
2018-12-23T07:37:11.167Z,15.87
2018-12-23T07:39:38.635Z,16.53
2018-12-23T07:42:06.138Z,18.23
2018-12-23T07:44:33.628Z,18.17
2018-12-23T07:47:01.153Z,17.07
2018-12-23T07:49:28.729Z,18.43
2018-12-23T07:51:56.290Z,15.77
2018-12-23T07:54:24.545Z,15.53
2018-12-23T07:56:52.078Z,13.83
2018-12-23T07:59:19.536Z,17.40
2018-12-23T08:01:46.977Z,12.97
2018-12-23T08:04:14.464Z,12.67
2018-12-23T08:06:41.928Z,13.77
2018-12-23T08:09:09.402Z,11.67
2018-12-23T08:11:36.855Z,13.67
2018-12-23T08:14:04.352Z,12.27
2018-12-23T08:16:31.893Z,14.07
2018-12-23T08:18:59.491Z,13.07
2018-12-23T08:21:26.960Z,14.30
2018-12-23T08:23:54.434Z,11.80
2018-12-23T08:26:21.902Z,12.57
2018-12-23T08:28:49.399Z,12.40
2018-12-23T08:31:16.936Z,15.43
2018-12-23T08:33:44.466Z,12.60
2018-12-23T08:36:11.983Z,12.60
2018-12-23T08:38:39.460Z,9.67
2018-12-23T08:41:06.952Z,11.03
2018-12-23T08:43:34.471Z,15.07
2018-12-23T08:46:01.978Z,11.23
2018-12-23T08:48:29.461Z,11.07
2018-12-23T08:50:57.039Z,9.37
2018-12-23T08:53:24.570Z,8.53
2018-12-23T08:55:52.031Z,12.83
2018-12-23T08:58:19.496Z,14.13
2018-12-23T09:00:47.080Z,14.27
2018-12-23T09:03:18.841Z,9.27
2018-12-23T09:05:44.137Z,10.23
2018-12-23T09:08:11.613Z,11.73
2018-12-23T09:10:39.074Z,11.60
2018-12-23T09:13:06.641Z,12.37
2018-12-23T09:15:34.119Z,11.90
2018-12-23T09:18:01.605Z,15.47
2018-12-23T09:20:29.114Z,13.97
2018-12-23T09:22:56.645Z,11.17
2018-12-23T09:25:24.098Z,10.73
2018-12-23T09:27:51.539Z,12.90
2018-12-23T09:30:19.045Z,11.50
2018-12-23T09:32:46.589Z,11.83
2018-12-23T09:35:14.079Z,10.30
2018-12-23T09:37:41.531Z,10.37
2018-12-23T09:40:09.054Z,10.00
2018-12-23T09:42:36.539Z,8.77
2018-12-23T09:45:04.301Z,11.23
2018-12-23T09:47:31.783Z,11.90
2018-12-23T09:49:59.293Z,12.97
2018-12-23T09:52:26.763Z,10.20
2018-12-23T09:54:54.329Z,12.10
2018-12-23T09:57:21.928Z,7.23
2018-12-23T09:59:49.397Z,8.17
2018-12-23T10:02:16.846Z,9.07
2018-12-23T10:04:44.427Z,9.23
2018-12-23T10:07:11.893Z,8.60
2018-12-23T10:09:39.397Z,12.10
2018-12-23T10:12:06.879Z,7.37
2018-12-23T10:14:34.343Z,9.70
2018-12-23T10:17:01.868Z,8.47
2018-12-23T10:19:29.389Z,7.27
2018-12-23T10:21:56.925Z,10.90
2018-12-23T10:24:24.481Z,9.40
2018-12-23T10:26:52.033Z,9.43
2018-12-23T10:29:19.766Z,10.80
2018-12-23T10:31:47.212Z,13.67
2018-12-23T10:34:14.864Z,11.33
2018-12-23T10:36:42.328Z,10.10
2018-12-23T10:39:09.835Z,8.57
2018-12-23T10:41:37.314Z,11.67
2018-12-23T10:44:04.806Z,9.87
2018-12-23T10:46:32.413Z,8.23
2018-12-23T10:48:59.926Z,8.87
2018-12-23T10:51:27.369Z,7.50
2018-12-23T10:53:54.848Z,12.77
2018-12-23T10:56:22.326Z,11.73
2018-12-23T10:58:49.787Z,11.10
2018-12-23T11:01:17.271Z,5.80
2018-12-23T11:03:44.816Z,8.97
2018-12-23T11:06:12.287Z,9.17
2018-12-23T11:08:39.738Z,5.97
2018-12-23T11:11:07.300Z,6.27
2018-12-23T11:13:34.757Z,8.63
2018-12-23T11:16:02.218Z,9.37
2018-12-23T11:18:29.688Z,4.40
2018-12-23T11:20:57.223Z,11.13
2018-12-23T11:23:24.668Z,12.17
2018-12-23T11:25:52.185Z,9.73
2018-12-23T11:28:19.757Z,9.07
2018-12-23T11:30:47.246Z,6.83
2018-12-23T11:33:14.686Z,5.53
2018-12-23T11:35:42.162Z,8.40
2018-12-23T11:38:09.628Z,8.13
2018-12-23T11:40:37.099Z,9.80
2018-12-23T11:43:04.592Z,10.07
2018-12-23T11:45:32.093Z,10.97
2018-12-23T11:47:59.550Z,12.13
2018-12-23T11:50:27.045Z,11.67
2018-12-23T11:52:54.543Z,10.43
2018-12-23T11:55:22.062Z,11.47
2018-12-23T11:57:49.552Z,10.43
2018-12-23T12:00:17.054Z,11.33
2018-12-23T12:02:44.542Z,11.07
2018-12-23T12:05:12.012Z,16.80
2018-12-23T12:07:39.488Z,15.63
2018-12-23T12:10:07.000Z,13.03
2018-12-23T12:12:34.458Z,12.83
2018-12-23T12:15:01.907Z,16.90
2018-12-23T12:17:29.387Z,11.37
2018-12-23T12:19:56.920Z,15.47
2018-12-23T12:22:24.556Z,10.17
2018-12-23T12:24:52.034Z,16.37
2018-12-23T12:27:19.508Z,10.40
2018-12-23T12:29:46.961Z,12.07
2018-12-23T12:32:14.438Z,13.43
2018-12-23T12:34:41.979Z,11.43
2018-12-23T12:37:09.568Z,11.80
2018-12-23T12:39:37.097Z,9.10
2018-12-23T12:42:04.592Z,12.87
2018-12-23T12:44:32.079Z,12.87
2018-12-23T12:46:59.585Z,10.13
2018-12-23T12:49:27.085Z,11.83
2018-12-23T12:51:54.540Z,11.80
2018-12-23T12:54:23.226Z,15.20
2018-12-23T12:56:50.796Z,16.30
2018-12-23T12:59:18.385Z,21.30
2018-12-23T13:01:45.832Z,13.53
2018-12-23T13:04:13.860Z,12.20
2018-12-23T13:06:41.360Z,16.80
2018-12-23T13:09:08.870Z,12.03
2018-12-23T13:11:36.398Z,18.40
2018-12-23T13:14:03.964Z,9.97
2018-12-23T13:16:31.441Z,13.57
2018-12-23T13:18:58.898Z,15.13
2018-12-23T13:21:26.367Z,15.17
2018-12-23T13:23:53.834Z,12.43
2018-12-23T13:26:21.334Z,15.97
2018-12-23T13:28:48.848Z,9.23
2018-12-23T13:31:16.310Z,13.60
2018-12-23T13:33:43.790Z,16.97
2018-12-23T13:36:11.267Z,15.07
2018-12-23T13:38:38.749Z,13.17
2018-12-23T13:41:11.024Z,15.87
2018-12-23T13:43:48.243Z,11.47
2018-12-23T13:46:24.396Z,16.27
2018-12-23T13:49:00.314Z,14.63
2018-12-23T13:51:53.079Z,19.80
2018-12-23T13:58:06.860Z,18.83
2018-12-23T14:00:57.900Z,15.53
2018-12-23T14:03:50.810Z,16.60
2018-12-23T14:06:42.846Z,17.90
2018-12-23T14:09:17.349Z,16.40
2018-12-23T14:11:54.404Z,16.60
2018-12-23T14:14:23.021Z,15.40
2018-12-23T14:16:51.616Z,16.80
2018-12-23T14:19:20.166Z,19.13
2018-12-23T14:21:48.716Z,12.53
2018-12-23T14:24:17.276Z,20.90
2018-12-23T14:26:45.836Z,18.27
2018-12-23T14:29:14.406Z,20.90
2018-12-23T14:31:43.049Z,19.83
2018-12-23T14:34:13.786Z,14.90
2018-12-23T14:36:41.960Z,17.07
2018-12-23T14:39:10.502Z,19.13
2018-12-23T14:41:39.062Z,17.43
2018-12-23T14:44:07.604Z,17.50
2018-12-23T14:46:36.152Z,15.43
2018-12-23T14:49:04.731Z,21.53
2018-12-23T14:51:33.288Z,10.87
2018-12-23T14:54:01.852Z,14.30
2018-12-23T14:56:30.394Z,17.37
2018-12-23T14:58:58.943Z,11.60
2018-12-23T15:01:27.527Z,11.13
2018-12-23T15:03:56.080Z,11.77
2018-12-23T15:06:24.633Z,10.27
2018-12-23T15:08:53.186Z,13.03
2018-12-23T15:11:21.782Z,7.20
2018-12-23T15:13:50.367Z,6.67
2018-12-23T15:16:18.896Z,10.30
2018-12-23T15:18:47.509Z,8.37
2018-12-23T15:21:16.031Z,7.80
2018-12-23T15:23:44.577Z,8.50
2018-12-23T15:26:13.168Z,12.03
2018-12-23T15:28:41.738Z,11.57
2018-12-23T15:31:11.882Z,7.50
2018-12-23T15:33:40.431Z,10.27
2018-12-23T15:36:09.111Z,10.63
2018-12-23T15:38:37.686Z,11.57
2018-12-23T15:41:06.239Z,13.57
2018-12-23T15:43:34.805Z,15.13
2018-12-23T15:46:03.365Z,19.50
2018-12-23T15:48:31.951Z,17.27
2018-12-23T15:51:00.498Z,16.73
2018-12-23T15:53:29.082Z,22.03
2018-12-23T15:55:57.623Z,19.40
2018-12-23T15:58:26.187Z,17.30
2018-12-23T16:00:54.736Z,20.50
2018-12-23T16:03:23.274Z,18.53
2018-12-23T16:05:51.858Z,17.73
2018-12-23T16:08:20.412Z,17.10
2018-12-23T16:10:49.002Z,17.63
2018-12-23T16:13:17.540Z,16.50
2018-12-23T16:15:46.113Z,16.27
2018-12-23T16:18:14.670Z,15.70
2018-12-23T16:20:43.227Z,17.50
2018-12-23T16:23:11.805Z,11.93
2018-12-23T16:25:40.361Z,10.73
2018-12-23T16:28:08.893Z,12.30
2018-12-23T16:30:37.448Z,10.37
2018-12-23T16:33:05.999Z,11.20
2018-12-23T16:35:34.558Z,13.70
2018-12-23T16:38:03.096Z,10.93
2018-12-23T16:40:31.644Z,11.23
2018-12-23T16:43:00.183Z,12.90
2018-12-23T16:45:29.015Z,13.30
2018-12-23T16:47:57.565Z,12.30
2018-12-23T16:50:26.138Z,13.47
2018-12-23T16:52:54.705Z,18.03
2018-12-23T16:55:23.256Z,16.67
2018-12-23T16:57:51.793Z,12.57
2018-12-23T17:00:20.331Z,20.03
2018-12-23T17:02:48.891Z,14.80
2018-12-23T17:05:17.436Z,18.60
2018-12-23T17:07:46.000Z,17.33
2018-12-23T17:10:14.541Z,13.93
2018-12-23T17:12:43.126Z,15.47
2018-12-23T17:15:11.662Z,16.47
2018-12-23T17:17:40.229Z,13.27
2018-12-23T17:20:10.806Z,18.30
2018-12-23T17:22:39.388Z,20.37
2018-12-23T17:25:07.929Z,15.17
2018-12-23T17:27:36.540Z,26.80
2018-12-23T17:30:06.614Z,20.73
2018-12-23T17:32:35.227Z,22.40
2018-12-23T17:35:03.828Z,16.17
2018-12-23T17:37:32.392Z,17.03
2018-12-23T17:40:00.931Z,13.83
2018-12-23T17:42:29.526Z,16.47
2018-12-23T17:44:58.074Z,17.43
2018-12-23T17:47:26.646Z,19.37
2018-12-23T17:49:55.178Z,21.53
2018-12-23T17:52:23.782Z,16.30
2018-12-23T17:54:52.315Z,15.77
2018-12-23T17:57:20.884Z,17.80
2018-12-23T17:59:49.451Z,18.60
2018-12-23T18:02:18.014Z,18.90
2018-12-23T18:04:46.554Z,17.00
2018-12-23T18:07:15.125Z,19.13
2018-12-23T18:09:43.667Z,16.03
2018-12-23T18:12:12.264Z,16.83
2018-12-23T18:14:40.815Z,23.00
2018-12-23T18:17:09.399Z,19.60
2018-12-23T18:19:37.900Z,22.00
2018-12-23T18:22:06.489Z,21.37
2018-12-23T18:24:35.035Z,20.83
2018-12-23T18:27:03.607Z,22.70
2018-12-23T18:29:32.154Z,23.40
2018-12-23T18:32:00.722Z,21.27
2018-12-23T18:34:29.308Z,18.73
2018-12-23T18:36:57.917Z,23.20
2018-12-23T18:39:26.481Z,25.33
2018-12-23T18:41:55.025Z,23.33
2018-12-23T18:44:23.599Z,30.83
2018-12-23T18:46:52.216Z,26.13
2018-12-23T18:49:20.794Z,30.17
2018-12-23T18:51:49.337Z,21.47
2018-12-23T18:54:17.908Z,25.17
2018-12-23T18:56:54.261Z,22.17
2018-12-23T18:59:23.143Z,23.57
2018-12-23T19:01:52.538Z,22.50
2018-12-23T19:04:21.239Z,21.40
2018-12-23T19:06:50.069Z,21.63
2018-12-23T19:09:19.476Z,20.07
2018-12-23T19:12:24.798Z,21.17
2018-12-23T19:14:59.170Z,19.53
2018-12-23T19:17:49.158Z,24.03
2018-12-23T19:20:48.398Z,24.23
2018-12-23T19:23:28.662Z,19.07
2018-12-23T19:26:32.358Z,22.20
2018-12-23T19:29:03.963Z,19.10
2018-12-23T19:31:50.126Z,22.33
2018-12-23T19:34:39.159Z,23.63
2018-12-23T19:37:13.422Z,25.80
2018-12-23T19:39:56.894Z,18.07
2018-12-23T19:42:54.393Z,22.57
2018-12-23T19:45:34.422Z,15.77
2018-12-23T19:48:28.852Z,23.37
2018-12-23T19:51:03.150Z,26.70
2018-12-23T19:53:43.843Z,35.60
2018-12-23T19:56:33.846Z,22.40
2018-12-23T19:59:17.612Z,25.37
2018-12-23T20:02:05.742Z,18.67
2018-12-23T20:04:40.437Z,16.20
2018-12-23T20:07:24.510Z,19.63
2018-12-23T20:09:58.884Z,25.53
2018-12-23T20:12:58.874Z,21.47
2018-12-23T20:15:33.250Z,27.70
2018-12-23T20:18:07.777Z,21.80
2018-12-23T20:20:51.482Z,23.77
2018-12-23T20:23:38.126Z,23.50
2018-12-23T20:26:24.847Z,22.90
2018-12-23T20:29:20.146Z,25.87
2018-12-23T20:32:03.122Z,19.87
2018-12-23T20:34:37.500Z,23.17
2018-12-23T20:37:29.754Z,26.37
2018-12-23T20:40:17.761Z,25.33
2018-12-23T20:42:52.250Z,23.90
2018-12-23T20:45:49.230Z,22.60
2018-12-23T20:48:42.900Z,18.50
2018-12-23T20:51:32.993Z,18.33
2018-12-23T20:54:31.315Z,22.47
2018-12-23T20:57:08.527Z,24.30
2018-12-23T20:59:55.216Z,23.03
2018-12-23T21:02:49.437Z,17.97
2018-12-23T21:05:42.108Z,25.73
2018-12-23T21:08:22.192Z,22.90
2018-12-23T21:11:02.508Z,19.60
2018-12-23T21:13:54.770Z,16.30
2018-12-23T21:16:41.405Z,18.07
2018-12-23T21:19:28.191Z,20.50
2018-12-23T21:22:08.141Z,18.10
2018-12-23T21:24:57.660Z,25.03
2018-12-23T21:27:54.396Z,21.20
2018-12-23T21:30:35.130Z,18.20
2018-12-23T21:33:15.668Z,25.80
2018-12-23T21:36:03.508Z,19.07
2018-12-23T21:38:41.099Z,19.83
2018-12-23T21:41:27.626Z,26.00
2018-12-23T21:44:15.476Z,24.53
2018-12-23T21:47:09.450Z,19.13
2018-12-23T21:49:56.417Z,20.83
2018-12-23T21:52:49.338Z,19.83
2018-12-23T21:55:26.451Z,25.27
2018-12-23T21:58:17.292Z,20.67
2018-12-23T22:01:15.945Z,19.60
2018-12-23T22:03:47.608Z,18.70
2018-12-23T22:06:40.247Z,18.30
2018-12-23T22:09:14.426Z,16.87
2018-12-23T22:12:10.331Z,19.67
2018-12-23T22:14:46.483Z,18.03
2018-12-23T22:17:15.079Z,15.67
2018-12-23T22:19:43.811Z,18.43
2018-12-23T22:22:12.373Z,17.67
2018-12-23T22:24:40.986Z,19.83
2018-12-23T22:27:09.526Z,15.53
2018-12-23T22:29:38.095Z,19.77
2018-12-23T22:32:06.751Z,20.47
2018-12-23T22:34:35.393Z,22.67
2018-12-23T22:37:03.928Z,20.73
2018-12-23T22:39:32.503Z,24.23
2018-12-23T22:42:01.061Z,16.73
2018-12-23T22:44:29.610Z,14.33
2018-12-23T22:46:58.163Z,16.40
2018-12-23T22:49:26.740Z,15.67
2018-12-23T22:51:55.318Z,12.77
2018-12-23T22:54:23.878Z,16.03
2018-12-23T22:56:52.436Z,14.93
2018-12-23T22:59:21.052Z,13.93
2018-12-23T23:01:49.655Z,13.37
2018-12-23T23:04:18.225Z,17.20
2018-12-23T23:06:46.791Z,14.97
2018-12-23T23:09:15.353Z,13.03
2018-12-23T23:11:49.909Z,15.07
2018-12-23T23:14:15.871Z,18.40
2018-12-23T23:16:44.419Z,17.20
2018-12-23T23:19:12.970Z,16.70
2018-12-23T23:21:41.626Z,14.87
2018-12-23T23:24:10.173Z,15.37
2018-12-23T23:26:38.742Z,14.30
2018-12-23T23:29:07.325Z,18.30
2018-12-23T23:31:35.869Z,10.13
2018-12-23T23:34:04.425Z,14.63
2018-12-23T23:36:32.962Z,12.80
2018-12-23T23:39:01.521Z,13.40
2018-12-23T23:41:30.065Z,8.10
2018-12-23T23:43:58.659Z,8.00
2018-12-23T23:46:27.188Z,9.97
2018-12-23T23:48:55.745Z,6.77
2018-12-23T23:51:24.285Z,8.63
2018-12-23T23:53:52.894Z,7.17
2018-12-23T23:56:21.437Z,7.27
2018-12-23T23:58:49.979Z,12.23
